Time;durP1;ratioP1;P1;durP2;ratioP2;P2;SDS_P1;SDS_P2;PMS_P1;PMS_P2;Temp;Humidity;BMP_temperature;BMP_pressure;BME280_temperature;BME280_humidity;BME280_pressure;Samples;Min_cycle;Max_cycle;Signal;HPM_P1;HPM_P2
2023/10/09 00:02:58;;;;;;;239.77;67.57;;;;;;;;;;5034623;28;20928;-48
2023/10/09 00:05:37;;;;;;;240.47;67.67;;;;;;;;;;5029944;28;20538;-47
2023/10/09 00:08:04;;;;;;;236.83;64.17;;;;;;;;;;5032212;28;20398;-47
2023/10/09 00:10:44;;;;;;;238.40;65.27;;;;;;;;;;5034426;28;21060;-48
2023/10/09 00:13:10;;;;;;;239.73;67.63;;;;;;;;;;5033272;28;20405;-47
2023/10/09 00:15:36;;;;;;;238.27;64.90;;;;;;;;;;5034511;28;20497;-48
2023/10/09 00:18:12;;;;;;;237.97;65.73;;;;;;;;;;5039761;28;20415;-49
2023/10/09 00:20:46;;;;;;;239.67;67.87;;;;;;;;;;5041415;28;20412;-48
2023/10/09 00:23:15;;;;;;;235.47;62.47;;;;;;;;;;5034131;28;20905;-48
2023/10/09 00:26:05;;;;;;;236.23;63.73;;;;;;;;;;5033892;28;20918;-47
2023/10/09 00:28:31;;;;;;;237.67;65.03;;;;;;;;;;5027591;28;20442;-48
2023/10/09 00:30:57;;;;;;;236.90;63.97;;;;;;;;;;5033876;28;20447;-47
2023/10/09 00:33:23;;;;;;;242.27;69.97;;;;;;;;;;5033964;28;20461;-48
2023/10/09 00:35:54;;;;;;;239.07;65.67;;;;;;;;;;5034365;28;20421;-47
2023/10/09 00:40:47;;;;;;;239.53;66.27;;;;;;;;;;5032783;28;20517;-48
2023/10/09 00:43:19;;;;;;;236.47;65.33;;;;;;;;;;5032127;28;20437;-48
2023/10/09 00:45:46;;;;;;;236.33;63.53;;;;;;;;;;5034223;28;20896;-48
2023/10/09 00:48:21;;;;;;;237.33;64.37;;;;;;;;;;5033720;28;20426;-49
2023/10/09 00:50:52;;;;;;;239.20;65.87;;;;;;;;;;5033603;28;20409;-48
2023/10/09 00:53:30;;;;;;;234.77;62.80;;;;;;;;;;5033380;28;20536;-49
2023/10/09 00:55:57;;;;;;;238.93;65.73;;;;;;;;;;5033609;28;20407;-49
2023/10/09 00:58:30;;;;;;;239.07;65.57;;;;;;;;;;5033507;28;20410;-49
2023/10/09 01:00:59;;;;;;;243.53;70.17;;;;;;;;;;5033240;28;20422;-48
2023/10/09 01:03:26;;;;;;;240.37;66.43;;;;;;;;;;5032771;28;20419;-48
2023/10/09 01:08:43;;;;;;;238.83;64.87;;;;;;;;;;5025436;28;20418;-48
2023/10/09 01:11:19;;;;;;;240.43;67.93;;;;;;;;;;5032120;28;20457;-48
2023/10/09 01:13:52;;;;;;;240.40;68.47;;;;;;;;;;5040786;28;20917;-47
2023/10/09 01:16:22;;;;;;;238.77;66.03;;;;;;;;;;5033194;28;20797;-47
2023/10/09 01:18:49;;;;;;;236.73;65.33;;;;;;;;;;5036216;28;20441;-48
2023/10/09 01:21:17;;;;;;;238.10;65.83;;;;;;;;;;5033680;28;20881;-49
2023/10/09 01:24:03;;;;;;;239.23;66.77;;;;;;;;;;5037851;28;20505;-48
2023/10/09 01:26:46;;;;;;;238.23;65.87;;;;;;;;;;5026406;28;20403;-48
2023/10/09 01:29:19;;;;;;;238.20;64.83;;;;;;;;;;5032854;28;20418;-49
2023/10/09 01:31:56;;;;;;;239.23;66.63;;;;;;;;;;5035084;28;20395;-49
2023/10/09 01:34:38;;;;;;;237.53;63.97;;;;;;;;;;5032778;28;21178;-48
2023/10/09 01:37:15;;;;;;;239.83;66.27;;;;;;;;;;5032906;28;20395;-49
2023/10/09 01:39:42;;;;;;;238.10;65.33;;;;;;;;;;5032043;28;20426;-48
2023/10/09 01:42:09;;;;;;;238.13;67.17;;;;;;;;;;5032842;28;20458;-48
2023/10/09 01:44:35;;;;;;;238.97;66.73;;;;;;;;;;5032295;28;20549;-48
2023/10/09 01:47:07;;;;;;;239.43;65.97;;;;;;;;;;5036279;28;20405;-49
2023/10/09 01:49:41;;;;;;;240.37;68.07;;;;;;;;;;5032500;28;20422;-47
2023/10/09 01:52:16;;;;;;;236.30;64.77;;;;;;;;;;5033271;28;20394;-48
2023/10/09 01:54:49;;;;;;;239.10;66.70;;;;;;;;;;5037224;28;20794;-49
2023/10/09 01:57:15;;;;;;;236.47;64.27;;;;;;;;;;5032577;28;20469;-48
2023/10/09 01:59:48;;;;;;;239.93;68.03;;;;;;;;;;5034399;28;20431;-49
2023/10/09 02:02:26;;;;;;;238.97;66.73;;;;;;;;;;5036046;28;20420;-48
2023/10/09 02:07:40;;;;;;;237.53;64.77;;;;;;;;;;5032966;28;20536;-49
2023/10/09 02:10:21;;;;;;;238.33;67.03;;;;;;;;;;5032382;28;20437;-49
2023/10/09 02:12:53;;;;;;;237.80;67.23;;;;;;;;;;5034217;28;20414;-49
2023/10/09 02:15:40;;;;;;;238.83;67.27;;;;;;;;;;5031161;28;20436;-49
2023/10/09 02:18:16;;;;;;;239.37;67.07;;;;;;;;;;5047445;28;20408;-49
2023/10/09 02:20:44;;;;;;;237.50;65.47;;;;;;;;;;5037348;28;20465;-48
2023/10/09 02:23:13;;;;;;;238.03;66.17;;;;;;;;;;5044185;28;20414;-48
2023/10/09 02:25:43;;;;;;;237.20;64.07;;;;;;;;;;5037438;28;20540;-48
2023/10/09 02:28:09;;;;;;;239.30;65.67;;;;;;;;;;5030717;28;20411;-48
2023/10/09 02:30:37;;;;;;;237.97;65.20;;;;;;;;;;5031769;28;20453;-48
2023/10/09 02:33:09;;;;;;;236.57;63.90;;;;;;;;;;5031943;28;20406;-47
2023/10/09 02:35:38;;;;;;;239.40;66.60;;;;;;;;;;5031784;28;20422;-47
2023/10/09 02:38:10;;;;;;;240.23;67.00;;;;;;;;;;5031848;28;20925;-48
2023/10/09 02:43:21;;;;;;;241.00;66.70;;;;;;;;;;5027211;28;20937;-48
2023/10/09 02:45:50;;;;;;;237.37;65.67;;;;;;;;;;5035990;28;20486;-49
2023/10/09 02:48:19;;;;;;;238.37;67.37;;;;;;;;;;5050172;28;20899;-48
2023/10/09 02:50:46;;;;;;;238.27;66.03;;;;;;;;;;5036082;28;20402;-48
2023/10/09 02:53:18;;;;;;;239.47;66.53;;;;;;;;;;5031649;28;20813;-48
2023/10/09 02:55:53;;;;;;;239.83;67.10;;;;;;;;;;5041743;28;20400;-49
2023/10/09 02:58:21;;;;;;;238.70;65.37;;;;;;;;;;5030336;28;20405;-48
2023/10/09 03:00:48;;;;;;;237.37;65.67;;;;;;;;;;5036674;28;20486;-48
2023/10/09 03:03:18;;;;;;;238.50;65.77;;;;;;;;;;5038235;28;20457;-49
2023/10/09 03:05:44;;;;;;;239.07;66.57;;;;;;;;;;5032593;28;20784;-47
2023/10/09 03:08:12;;;;;;;240.77;67.10;;;;;;;;;;5032143;28;20406;-48
2023/10/09 03:10:41;;;;;;;239.67;67.77;;;;;;;;;;5031497;28;20453;-48
2023/10/09 03:13:07;;;;;;;238.77;67.30;;;;;;;;;;5031377;28;20406;-47
2023/10/09 03:15:35;;;;;;;238.70;68.17;;;;;;;;;;5036273;28;20410;-48
2023/10/09 03:18:02;;;;;;;238.37;65.50;;;;;;;;;;5038093;28;20403;-48
2023/10/09 03:20:30;;;;;;;237.73;64.53;;;;;;;;;;5031303;28;20939;-48
2023/10/09 03:22:57;;;;;;;235.80;64.10;;;;;;;;;;5031743;28;20415;-48
2023/10/09 03:25:25;;;;;;;239.53;66.57;;;;;;;;;;5034547;28;20454;-47
2023/10/09 03:27:52;;;;;;;238.87;66.67;;;;;;;;;;5035969;28;20401;-48
2023/10/09 03:30:25;;;;;;;238.53;67.20;;;;;;;;;;5033002;28;20434;-47
2023/10/09 03:32:51;;;;;;;237.77;65.67;;;;;;;;;;5035230;28;20404;-47
2023/10/09 03:35:24;;;;;;;238.93;66.07;;;;;;;;;;5030962;28;20415;-47
2023/10/09 03:37:50;;;;;;;238.17;65.73;;;;;;;;;;5032969;28;20415;-48
2023/10/09 03:40:17;;;;;;;237.50;65.30;;;;;;;;;;5034441;28;20525;-47
2023/10/09 03:42:44;;;;;;;239.27;68.13;;;;;;;;;;5036327;28;20497;-47
2023/10/09 03:45:18;;;;;;;237.97;66.30;;;;;;;;;;5030867;28;20472;-48
2023/10/09 03:47:44;;;;;;;239.57;68.27;;;;;;;;;;5031098;28;20407;-48
2023/10/09 03:50:26;;;;;;;239.90;67.57;;;;;;;;;;5031333;28;20428;-49
2023/10/09 03:52:52;;;;;;;239.27;67.27;;;;;;;;;;5031143;28;20436;-48
2023/10/09 03:55:19;;;;;;;241.33;69.83;;;;;;;;;;5030852;28;20934;-48
2023/10/09 03:57:45;;;;;;;239.97;68.60;;;;;;;;;;5035595;28;20411;-48
2023/10/09 04:00:15;;;;;;;238.30;66.20;;;;;;;;;;5037473;28;20438;-47
2023/10/09 04:02:42;;;;;;;236.77;65.97;;;;;;;;;;5029861;28;20503;-48
2023/10/09 04:05:08;;;;;;;237.67;66.93;;;;;;;;;;5035726;28;20461;-48
2023/10/09 04:07:34;;;;;;;239.00;67.83;;;;;;;;;;5034436;28;20406;-48
2023/10/09 04:10:32;;;;;;;238.47;66.90;;;;;;;;;;5034255;28;20484;-47
2023/10/09 04:12:52;;;;;;;237.13;65.60;;;;;;;;;;5040334;28;20452;-47
2023/10/09 04:15:22;;;;;;;236.10;65.07;;;;;;;;;;5037517;28;20409;-48
2023/10/09 04:17:51;;;;;;;240.27;68.93;;;;;;;;;;5036077;28;20436;-48
2023/10/09 04:22:50;;;;;;;237.00;65.37;;;;;;;;;;5034240;28;20413;-49
2023/10/09 04:25:25;;;;;;;239.33;67.03;;;;;;;;;;5033797;28;20836;-47
2023/10/09 04:27:53;;;;;;;236.37;65.07;;;;;;;;;;5034293;28;20414;-47
2023/10/09 04:30:18;;;;;;;238.77;66.07;;;;;;;;;;5034122;28;20424;-47
2023/10/09 04:32:45;;;;;;;240.23;68.17;;;;;;;;;;5034141;28;20917;-48
2023/10/09 04:35:29;;;;;;;239.07;68.27;;;;;;;;;;5033848;28;20896;-47
2023/10/09 04:38:05;;;;;;;239.00;66.47;;;;;;;;;;5034367;28;20407;-48
2023/10/09 04:40:48;;;;;;;238.00;66.47;;;;;;;;;;5033788;28;20918;-48
2023/10/09 04:43:23;;;;;;;239.27;66.57;;;;;;;;;;5033744;28;20450;-48
2023/10/09 04:46:12;;;;;;;239.40;67.07;;;;;;;;;;5034401;28;20471;-47
2023/10/09 04:48:38;;;;;;;240.77;68.80;;;;;;;;;;5028159;28;20502;-47
2023/10/09 04:54:15;;;;;;;239.93;68.53;;;;;;;;;;5020225;28;20799;-47
2023/10/09 04:56:53;;;;;;;239.87;67.60;;;;;;;;;;5021500;28;20448;-48
2023/10/09 04:59:24;;;;;;;236.90;63.67;;;;;;;;;;5016358;28;20759;-47
2023/10/09 05:01:57;;;;;;;238.53;67.33;;;;;;;;;;5033578;28;20453;-48
2023/10/09 05:04:39;;;;;;;239.57;69.03;;;;;;;;;;5025742;28;20907;-47
2023/10/09 05:07:22;;;;;;;239.60;68.23;;;;;;;;;;5033783;28;20429;-48
2023/10/09 05:10:16;;;;;;;236.00;64.77;;;;;;;;;;5033089;28;20430;-47
2023/10/09 05:12:56;;;;;;;239.93;67.53;;;;;;;;;;5028407;28;20545;-47
2023/10/09 05:15:29;;;;;;;239.53;67.37;;;;;;;;;;5025349;28;20403;-48
2023/10/09 05:17:56;;;;;;;237.83;65.53;;;;;;;;;;5033112;28;20410;-48
2023/10/09 05:22:59;;;;;;;240.93;68.27;;;;;;;;;;5033232;28;20876;-47
2023/10/09 05:28:30;;;;;;;239.53;65.77;;;;;;;;;;5033180;28;20417;-49
2023/10/09 05:31:07;;;;;;;236.17;63.07;;;;;;;;;;5032945;28;20847;-47
2023/10/09 05:33:37;;;;;;;239.43;68.97;;;;;;;;;;5032715;28;20407;-47
2023/10/09 05:38:58;;;;;;;238.97;66.00;;;;;;;;;;5033147;28;20474;-47
2023/10/09 05:41:31;;;;;;;239.97;67.07;;;;;;;;;;5025347;28;20485;-48
2023/10/09 05:47:22;;;;;;;239.50;68.03;;;;;;;;;;5032393;28;20422;-48
2023/10/09 05:49:45;;;;;;;238.67;66.07;;;;;;;;;;5024591;28;20435;-47
2023/10/09 06:08:47;;;;;;;240.97;68.27;;;;;;;;;;5024449;28;20450;-47
2023/10/09 06:14:49;;;;;;;238.63;67.70;;;;;;;;;;5032476;28;20417;-47
2023/10/09 06:19:42;;;;;;;239.10;66.40;;;;;;;;;;5032703;28;20443;-46
2023/10/09 06:29:36;;;;;;;241.90;69.67;;;;;;;;;;5031902;28;20436;-48
2023/10/09 06:34:51;;;;;;;239.77;69.03;;;;;;;;;;5031957;28;20511;-46
2023/10/09 06:39:50;;;;;;;238.87;66.53;;;;;;;;;;5031761;28;20446;-48
2023/10/09 06:47:55;;;;;;;238.07;68.30;;;;;;;;;;5032060;28;20428;-48
2023/10/09 06:53:18;;;;;;;239.43;70.70;;;;;;;;;;5031677;28;20414;-48
2023/10/09 06:55:51;;;;;;;237.00;65.77;;;;;;;;;;5026838;28;20516;-47
2023/10/09 06:58:25;;;;;;;242.30;71.33;;;;;;;;;;5031639;28;20417;-47
2023/10/09 07:01:19;;;;;;;242.10;72.03;;;;;;;;;;5031518;28;20403;-47
2023/10/09 07:03:53;;;;;;;240.07;70.47;;;;;;;;;;5026213;28;20439;-46
2023/10/09 07:06:48;;;;;;;238.53;67.67;;;;;;;;;;5033348;28;20691;-47
2023/10/09 07:16:57;;;;;;;239.93;67.37;;;;;;;;;;5034544;28;20419;-47
2023/10/09 07:19:57;;;;;;;244.73;72.83;;;;;;;;;;5030835;28;20432;-47
2023/10/09 07:24:49;;;;;;;242.33;71.87;;;;;;;;;;5027008;28;20473;-48
2023/10/09 07:32:54;;;;;;;240.13;70.23;;;;;;;;;;5031466;28;20464;-47
2023/10/09 07:38:05;;;;;;;244.87;74.20;;;;;;;;;;5032957;28;20854;-47
2023/10/09 07:40:51;;;;;;;243.67;72.67;;;;;;;;;;5033454;28;20426;-48
2023/10/09 07:43:17;;;;;;;243.77;71.97;;;;;;;;;;5032943;28;20427;-49
2023/10/09 07:48:25;;;;;;;241.93;69.60;;;;;;;;;;5026595;28;20851;-48
2023/10/09 07:50:57;;;;;;;241.93;70.47;;;;;;;;;;5034891;28;20422;-47
2023/10/09 07:53:26;;;;;;;247.90;76.60;;;;;;;;;;5027003;28;20495;-48
2023/10/09 07:56:06;;;;;;;243.47;72.63;;;;;;;;;;5034728;28;20490;-48
2023/10/09 07:58:33;;;;;;;238.83;68.70;;;;;;;;;;5029571;28;20427;-48
2023/10/09 08:01:15;;;;;;;243.03;76.47;;;;;;;;;;5033585;28;20417;-48
2023/10/09 08:03:45;;;;;;;244.47;74.43;;;;;;;;;;5034429;28;20824;-47
2023/10/09 08:19:53;;;;;;;241.73;70.83;;;;;;;;;;5034351;28;20441;-47
2023/10/09 08:24:56;;;;;;;241.17;70.67;;;;;;;;;;5033979;28;20485;-49
2023/10/09 08:32:40;;;;;;;242.87;73.67;;;;;;;;;;5034253;28;20418;-47
2023/10/09 08:35:29;;;;;;;241.43;71.93;;;;;;;;;;5033808;28;20414;-49
2023/10/09 08:37:58;;;;;;;243.57;73.93;;;;;;;;;;5034001;28;20416;-48
2023/10/09 08:40:33;;;;;;;251.63;76.83;;;;;;;;;;5033036;28;20504;-47
2023/10/09 08:43:01;;;;;;;243.97;74.77;;;;;;;;;;5050865;28;20438;-47
2023/10/09 08:45:27;;;;;;;243.57;75.17;;;;;;;;;;5039137;28;20992;-47
2023/10/09 08:47:56;;;;;;;242.50;72.73;;;;;;;;;;5044591;28;20800;-47
2023/10/09 08:50:28;;;;;;;240.63;70.50;;;;;;;;;;5044799;28;20436;-47
2023/10/09 08:52:55;;;;;;;242.93;74.53;;;;;;;;;;5040271;28;20721;-48
2023/10/09 08:55:21;;;;;;;239.47;69.93;;;;;;;;;;5049994;28;20422;-46
2023/10/09 08:57:47;;;;;;;240.57;71.30;;;;;;;;;;5033778;28;20417;-47
2023/10/09 09:00:23;;;;;;;241.40;70.83;;;;;;;;;;5033601;28;20418;-48
2023/10/09 09:02:56;;;;;;;240.63;70.37;;;;;;;;;;5052728;28;20401;-47
2023/10/09 09:05:23;;;;;;;239.47;69.60;;;;;;;;;;5053770;22;20502;-46
2023/10/09 09:07:49;;;;;;;243.37;73.20;;;;;;;;;;5023700;28;20465;-46
2023/10/09 09:10:21;;;;;;;244.63;75.47;;;;;;;;;;5033361;28;20893;-47
2023/10/09 09:12:53;;;;;;;242.77;73.83;;;;;;;;;;5015446;28;20415;-47
2023/10/09 09:15:19;;;;;;;242.60;71.37;;;;;;;;;;5033243;28;20440;-46
2023/10/09 09:17:45;;;;;;;243.17;75.37;;;;;;;;;;5033243;28;20417;-46
2023/10/09 09:20:27;;;;;;;244.43;76.13;;;;;;;;;;5033073;28;20771;-46
2023/10/09 09:22:56;;;;;;;242.13;73.17;;;;;;;;;;5032995;28;20429;-46
2023/10/09 09:25:31;;;;;;;245.93;76.43;;;;;;;;;;5013092;28;20806;-46
2023/10/09 09:27:59;;;;;;;244.57;73.53;;;;;;;;;;5031328;28;20416;-46
2023/10/09 09:30:33;;;;;;;244.47;76.77;;;;;;;;;;5032928;28;20434;-46
2023/10/09 09:33:15;;;;;;;247.63;78.53;;;;;;;;;;5032901;28;20413;-46
2023/10/09 09:35:57;;;;;;;246.33;75.60;;;;;;;;;;5032720;28;20526;-46
2023/10/09 09:38:23;;;;;;;245.20;75.23;;;;;;;;;;5028330;28;20493;-46
2023/10/09 09:40:53;;;;;;;245.87;75.20;;;;;;;;;;5032309;28;20559;-47
2023/10/09 09:43:25;;;;;;;252.67;82.33;;;;;;;;;;5030841;28;20515;-46
2023/10/09 09:45:56;;;;;;;252.53;85.00;;;;;;;;;;5032699;28;20480;-47
2023/10/09 09:48:23;;;;;;;254.77;92.67;;;;;;;;;;5033026;28;20394;-47
2023/10/09 09:50:54;;;;;;;250.73;85.27;;;;;;;;;;5032159;28;20426;-46
2023/10/09 09:53:23;;;;;;;253.27;89.70;;;;;;;;;;5032202;28;20450;-47
2023/10/09 09:55:58;;;;;;;251.27;88.90;;;;;;;;;;5049477;28;20513;-47
2023/10/09 09:58:42;;;;;;;251.03;88.07;;;;;;;;;;5036974;28;20501;-47
2023/10/09 10:01:24;;;;;;;247.23;85.40;;;;;;;;;;5032107;28;20863;-47
2023/10/09 10:03:51;;;;;;;255.43;89.47;;;;;;;;;;5022093;28;20461;-47
2023/10/09 10:06:21;;;;;;;252.40;88.97;;;;;;;;;;5028710;28;20419;-46
2023/10/09 10:08:51;;;;;;;249.50;86.10;;;;;;;;;;5020673;28;20418;-47
2023/10/09 10:11:40;;;;;;;251.33;87.13;;;;;;;;;;5030672;28;20402;-47
2023/10/09 10:14:11;;;;;;;250.70;86.07;;;;;;;;;;5032368;28;20422;-47
2023/10/09 10:16:56;;;;;;;249.53;85.77;;;;;;;;;;5032105;28;20412;-46
2023/10/09 10:19:22;;;;;;;249.43;85.40;;;;;;;;;;5032012;28;20786;-47
2023/10/09 10:21:49;;;;;;;249.17;85.80;;;;;;;;;;5031970;28;20407;-46
2023/10/09 10:24:30;;;;;;;248.40;82.87;;;;;;;;;;5031724;28;20449;-47
2023/10/09 10:27:27;;;;;;;248.90;83.30;;;;;;;;;;5031877;28;20406;-46
2023/10/09 10:30:11;;;;;;;246.70;84.67;;;;;;;;;;5032014;28;20532;-46
2023/10/09 10:32:52;;;;;;;250.83;87.27;;;;;;;;;;5032061;28;20466;-46
2023/10/09 10:38:34;;;;;;;254.83;95.20;;;;;;;;;;4951413;29;20843;-46
2023/10/09 10:41:12;;;;;;;247.13;83.43;;;;;;;;;;4943509;29;20426;-46
2023/10/09 10:43:47;;;;;;;249.33;86.17;;;;;;;;;;4992846;28;20406;-47
2023/10/09 10:48:59;;;;;;;250.17;86.17;;;;;;;;;;5030522;28;20406;-47
2023/10/09 10:51:37;;;;;;;247.63;84.43;;;;;;;;;;5031483;28;20417;-47
2023/10/09 10:56:48;;;;;;;248.00;84.10;;;;;;;;;;5031609;28;20776;-47
2023/10/09 10:59:22;;;;;;;247.27;82.90;;;;;;;;;;5031596;28;20422;-46
2023/10/09 11:07:24;;;;;;;252.17;90.33;;;;;;;;;;5027934;28;20417;-47
2023/10/09 11:15:44;;;;;;;253.70;96.17;;;;;;;;;;5026964;28;20421;-47
2023/10/09 11:23:38;;;;;;;259.40;99.10;;;;;;;;;;5028352;28;20935;-47
2023/10/09 11:32:09;;;;;;;251.50;90.20;;;;;;;;;;5010133;28;20912;-46
2023/10/09 11:34:37;;;;;;;250.77;90.80;;;;;;;;;;5028953;28;20418;-47
2023/10/09 11:37:12;;;;;;;249.07;88.70;;;;;;;;;;5040578;28;20406;-48
2023/10/09 11:39:52;;;;;;;247.13;88.73;;;;;;;;;;5035756;28;20807;-47
2023/10/09 11:45:19;;;;;;;250.63;92.43;;;;;;;;;;5034290;28;21038;-47
2023/10/09 11:48:21;;;;;;;309.70;188.75;;;;;;;;;;5788249;22;20457;-47
2023/10/09 11:50:51;;;;;;;255.37;100.23;;;;;;;;;;5024870;28;21247;-48
2023/10/09 11:53:19;;;;;;;250.93;94.33;;;;;;;;;;5019765;28;20431;-49
2023/10/09 11:55:48;;;;;;;249.77;92.70;;;;;;;;;;5017425;28;20473;-47
2023/10/09 11:58:14;;;;;;;250.20;96.73;;;;;;;;;;5013198;28;20423;-48
2023/10/09 12:00:47;;;;;;;252.97;97.43;;;;;;;;;;5014944;28;20506;-47
2023/10/09 12:03:14;;;;;;;253.20;97.20;;;;;;;;;;5016761;28;20415;-47
2023/10/09 12:05:43;;;;;;;253.13;97.27;;;;;;;;;;5017081;28;20462;-48
2023/10/09 12:08:09;;;;;;;253.13;98.93;;;;;;;;;;5007464;28;20937;-47
2023/10/09 12:10:38;;;;;;;254.13;102.30;;;;;;;;;;5006660;28;20481;-47
2023/10/09 12:13:04;;;;;;;255.17;99.57;;;;;;;;;;5014414;28;20440;-47
2023/10/09 12:15:37;;;;;;;254.57;103.77;;;;;;;;;;5014797;28;20411;-48
2023/10/09 12:18:06;;;;;;;253.20;98.03;;;;;;;;;;5015798;28;20436;-48
2023/10/09 12:20:33;;;;;;;253.33;96.43;;;;;;;;;;5008744;28;20412;-47
2023/10/09 12:22:59;;;;;;;252.43;95.30;;;;;;;;;;5017497;28;20421;-47
2023/10/09 12:25:26;;;;;;;251.90;94.00;;;;;;;;;;5014339;28;20544;-48
2023/10/09 12:27:57;;;;;;;252.03;93.77;;;;;;;;;;5005930;28;20485;-48
2023/10/09 12:30:26;;;;;;;251.90;93.67;;;;;;;;;;5014468;28;20989;-48
2023/10/09 12:32:57;;;;;;;251.00;93.67;;;;;;;;;;5015905;28;20411;-48
2023/10/09 12:35:24;;;;;;;250.20;94.60;;;;;;;;;;5006290;28;20918;-48
2023/10/09 12:37:51;;;;;;;247.50;88.17;;;;;;;;;;5013851;28;20521;-48
2023/10/09 12:40:23;;;;;;;250.33;91.00;;;;;;;;;;5010835;28;20809;-48
2023/10/09 12:42:50;;;;;;;248.47;90.33;;;;;;;;;;5002702;28;20761;-48
2023/10/09 12:45:17;;;;;;;248.87;92.47;;;;;;;;;;5015929;28;20462;-48
2023/10/09 12:47:43;;;;;;;250.93;93.30;;;;;;;;;;5016147;28;20415;-49
2023/10/09 12:50:13;;;;;;;250.13;93.00;;;;;;;;;;5014821;28;20429;-48
2023/10/09 12:52:39;;;;;;;250.57;94.67;;;;;;;;;;5018640;28;20407;-48
2023/10/09 12:55:07;;;;;;;251.97;96.43;;;;;;;;;;5020459;28;20403;-47
2023/10/09 12:57:33;;;;;;;251.10;93.77;;;;;;;;;;5013578;28;20415;-48
2023/10/09 12:59:59;;;;;;;251.63;95.70;;;;;;;;;;5005581;28;20837;-49
2023/10/09 13:02:28;;;;;;;250.63;95.60;;;;;;;;;;5013851;28;20411;-48
2023/10/09 13:04:54;;;;;;;251.70;96.07;;;;;;;;;;5018494;28;20477;-48
2023/10/09 13:07:22;;;;;;;257.93;102.53;;;;;;;;;;5013244;28;20902;-47
2023/10/09 13:10:08;;;;;;;251.47;96.10;;;;;;;;;;5005969;28;20400;-48
2023/10/09 13:12:34;;;;;;;252.97;96.47;;;;;;;;;;5008238;28;20395;-47
2023/10/09 13:15:00;;;;;;;252.17;94.33;;;;;;;;;;5013439;28;20414;-48
2023/10/09 13:17:28;;;;;;;255.63;99.47;;;;;;;;;;5004990;28;20490;-48
2023/10/09 13:19:56;;;;;;;250.37;95.97;;;;;;;;;;5013362;28;20422;-47
2023/10/09 13:22:22;;;;;;;249.33;94.00;;;;;;;;;;5019921;28;20758;-48
2023/10/09 13:24:49;;;;;;;251.07;95.70;;;;;;;;;;5021351;28;20964;-48
2023/10/09 13:27:21;;;;;;;250.67;95.07;;;;;;;;;;5012947;28;20494;-48
2023/10/09 13:29:47;;;;;;;248.47;91.13;;;;;;;;;;5016243;28;20411;-48
2023/10/09 13:32:14;;;;;;;248.00;89.50;;;;;;;;;;5013222;28;20487;-48
2023/10/09 13:34:48;;;;;;;247.40;87.43;;;;;;;;;;5016895;28;20411;-48
2023/10/09 13:37:21;;;;;;;252.30;92.60;;;;;;;;;;5017472;28;20478;-49
2023/10/09 13:39:53;;;;;;;246.13;86.70;;;;;;;;;;5021190;28;20416;-49
2023/10/09 13:42:24;;;;;;;250.03;93.17;;;;;;;;;;5005028;28;21108;-47
2023/10/09 13:44:53;;;;;;;253.73;98.93;;;;;;;;;;5015834;28;20478;-48
2023/10/09 13:47:20;;;;;;;259.97;105.47;;;;;;;;;;5017240;28;20413;-47
2023/10/09 13:49:50;;;;;;;255.53;100.60;;;;;;;;;;5012940;28;20413;-48
2023/10/09 13:52:21;;;;;;;251.87;96.10;;;;;;;;;;5005094;28;20421;-48
2023/10/09 13:54:49;;;;;;;250.77;96.27;;;;;;;;;;5012950;28;20409;-48
2023/10/09 13:57:15;;;;;;;255.47;101.67;;;;;;;;;;5004434;28;20466;-49
2023/10/09 13:59:51;;;;;;;251.93;96.37;;;;;;;;;;5004590;28;20418;-48
2023/10/09 14:02:17;;;;;;;254.67;99.20;;;;;;;;;;5017238;28;20403;-48
2023/10/09 14:04:43;;;;;;;254.00;96.43;;;;;;;;;;5005445;28;20462;-48
2023/10/09 14:07:09;;;;;;;252.23;94.27;;;;;;;;;;5011655;28;20417;-48
2023/10/09 14:09:39;;;;;;;250.40;93.57;;;;;;;;;;5012394;28;20449;-48
2023/10/09 14:12:06;;;;;;;252.23;93.57;;;;;;;;;;5011410;28;20871;-48
2023/10/09 14:14:40;;;;;;;251.73;94.00;;;;;;;;;;5000679;28;20418;-49
2023/10/09 14:17:12;;;;;;;253.67;94.30;;;;;;;;;;5012802;28;20403;-47
2023/10/09 14:19:46;;;;;;;251.90;94.00;;;;;;;;;;5012433;28;20909;-47
2023/10/09 14:22:15;;;;;;;252.27;92.10;;;;;;;;;;5031355;28;20422;-47
2023/10/09 14:24:44;;;;;;;249.73;90.00;;;;;;;;;;5015445;28;20940;-47
2023/10/09 14:27:15;;;;;;;253.33;91.67;;;;;;;;;;5025959;28;20908;-47
2023/10/09 14:29:42;;;;;;;248.97;86.10;;;;;;;;;;5020373;28;20415;-48
2023/10/09 14:32:12;;;;;;;251.63;89.87;;;;;;;;;;5021087;28;20410;-49
2023/10/09 14:34:42;;;;;;;251.73;91.70;;;;;;;;;;5025468;28;20407;-47
2023/10/09 14:37:11;;;;;;;251.20;88.50;;;;;;;;;;5015914;28;20449;-49
2023/10/09 14:39:37;;;;;;;248.63;84.83;;;;;;;;;;5030564;28;20797;-47
2023/10/09 14:42:09;;;;;;;249.07;87.67;;;;;;;;;;5012213;28;20411;-47
2023/10/09 14:44:37;;;;;;;247.80;84.63;;;;;;;;;;5019463;28;21065;-47
2023/10/09 14:47:05;;;;;;;252.83;92.97;;;;;;;;;;5027902;28;20420;-47
2023/10/09 14:49:34;;;;;;;250.90;87.93;;;;;;;;;;5017974;28;20518;-47
2023/10/09 14:52:01;;;;;;;249.43;86.20;;;;;;;;;;5022780;28;21134;-48
2023/10/09 14:54:27;;;;;;;246.13;81.53;;;;;;;;;;5023735;28;20415;-47
2023/10/09 14:56:54;;;;;;;250.67;87.83;;;;;;;;;;5011679;28;20933;-48
2023/10/09 14:59:22;;;;;;;246.93;81.63;;;;;;;;;;5011468;28;20521;-47
2023/10/09 15:01:53;;;;;;;250.23;85.63;;;;;;;;;;5011758;28;20427;-47
2023/10/09 15:04:19;;;;;;;246.67;84.37;;;;;;;;;;5011897;28;20465;-47
2023/10/09 15:06:49;;;;;;;246.97;83.27;;;;;;;;;;5028676;28;20410;-48
2023/10/09 15:09:21;;;;;;;248.17;84.60;;;;;;;;;;5016803;28;20522;-48
2023/10/09 15:11:48;;;;;;;248.57;84.57;;;;;;;;;;5024198;28;20445;-47
2023/10/09 15:14:14;;;;;;;248.70;85.20;;;;;;;;;;5021852;28;20516;-47
2023/10/09 15:16:42;;;;;;;247.43;84.23;;;;;;;;;;5011817;28;20416;-47
2023/10/09 15:19:10;;;;;;;247.60;84.90;;;;;;;;;;5011244;28;20449;-49
2023/10/09 15:21:42;;;;;;;248.67;84.43;;;;;;;;;;5011746;28;20906;-48
2023/10/09 15:24:08;;;;;;;247.27;83.10;;;;;;;;;;5011639;28;20407;-48
2023/10/09 15:26:34;;;;;;;248.57;85.77;;;;;;;;;;5030465;28;20936;-49
2023/10/09 15:29:03;;;;;;;249.63;86.70;;;;;;;;;;5015107;28;20436;-47
2023/10/09 15:31:31;;;;;;;249.63;86.77;;;;;;;;;;5024635;28;20406;-48
2023/10/09 15:33:57;;;;;;;250.30;87.00;;;;;;;;;;5005696;28;20415;-48
2023/10/09 15:36:28;;;;;;;249.13;85.17;;;;;;;;;;5011573;28;20790;-47
2023/10/09 15:38:59;;;;;;;248.77;84.50;;;;;;;;;;5010386;28;21010;-49
2023/10/09 15:41:25;;;;;;;248.13;83.63;;;;;;;;;;5004633;28;20553;-48
2023/10/09 15:43:51;;;;;;;248.17;85.33;;;;;;;;;;5011243;28;20420;-47
2023/10/09 15:46:17;;;;;;;248.30;85.37;;;;;;;;;;5010159;28;20414;-48
2023/10/09 15:48:45;;;;;;;247.03;81.50;;;;;;;;;;5027590;28;20427;-48
2023/10/09 15:51:14;;;;;;;248.87;86.13;;;;;;;;;;5017570;28;20430;-47
2023/10/09 15:53:41;;;;;;;245.67;81.90;;;;;;;;;;5022671;28;20469;-48
2023/10/09 15:56:07;;;;;;;247.73;85.83;;;;;;;;;;5022631;28;20450;-48
2023/10/09 15:58:33;;;;;;;248.77;86.53;;;;;;;;;;5019088;28;20461;-47
2023/10/09 16:00:59;;;;;;;246.80;82.83;;;;;;;;;;5026084;28;20906;-48
2023/10/09 16:03:27;;;;;;;245.70;82.07;;;;;;;;;;5014994;28;20493;-48
2023/10/09 16:05:53;;;;;;;245.10;82.03;;;;;;;;;;5006549;28;20498;-48
2023/10/09 16:08:22;;;;;;;244.93;78.30;;;;;;;;;;5006224;28;20474;-47
2023/10/09 16:10:49;;;;;;;243.60;76.43;;;;;;;;;;5014759;28;20447;-47
2023/10/09 16:13:16;;;;;;;244.60;79.27;;;;;;;;;;5014252;28;20410;-48
2023/10/09 16:15:43;;;;;;;243.60;76.90;;;;;;;;;;5007725;28;20422;-48
2023/10/09 16:18:09;;;;;;;243.43;78.17;;;;;;;;;;5013557;28;20482;-47
2023/10/09 16:20:37;;;;;;;249.20;85.43;;;;;;;;;;5016881;28;20410;-48
2023/10/09 16:23:04;;;;;;;245.87;78.70;;;;;;;;;;5016061;28;20442;-48
2023/10/09 16:25:30;;;;;;;245.17;80.47;;;;;;;;;;5014512;28;20466;-48
2023/10/09 16:27:58;;;;;;;242.87;76.00;;;;;;;;;;5005892;28;21011;-47
2023/10/09 16:30:24;;;;;;;246.27;83.20;;;;;;;;;;5015335;28;20912;-48
2023/10/09 16:32:51;;;;;;;242.50;75.83;;;;;;;;;;5006212;28;20409;-48
2023/10/09 16:35:17;;;;;;;244.77;77.53;;;;;;;;;;5014391;28;20776;-49
2023/10/09 16:37:43;;;;;;;243.30;75.00;;;;;;;;;;5019174;28;20916;-48
2023/10/09 16:40:13;;;;;;;244.77;78.10;;;;;;;;;;5016898;28;20414;-48
2023/10/09 16:42:40;;;;;;;243.67;76.67;;;;;;;;;;5019150;28;20406;-48
2023/10/09 16:45:08;;;;;;;243.87;77.50;;;;;;;;;;5013917;28;20465;-48
2023/10/09 16:47:38;;;;;;;243.43;76.83;;;;;;;;;;5013615;28;20500;-48
2023/10/09 16:50:09;;;;;;;247.57;81.53;;;;;;;;;;5017817;28;20509;-48
2023/10/09 16:52:37;;;;;;;245.53;77.73;;;;;;;;;;5007699;28;20415;-47
2023/10/09 16:55:08;;;;;;;246.53;79.23;;;;;;;;;;5012263;28;20476;-48